sensor_id;sensor_type;location;lat;lon;timestamp;pressure;altitude;pressure_sealevel;temperature
78961;BMP280;68362;45.970;12.646;2024-01-16T00:00:05;99996.09;;;0.00
78961;BMP280;68362;45.970;12.646;2024-01-16T00:01:08;100001.72;;;-0.04
78961;BMP280;68362;45.970;12.646;2024-01-16T00:02:20;100009.94;;;-0.09
78961;BMP280;68362;45.970;12.646;2024-01-16T00:03:22;100007.38;;;0.07
78961;BMP280;68362;45.970;12.646;2024-01-16T00:04:24;100013.06;;;0.11
78961;BMP280;68362;45.970;12.646;2024-01-16T00:05:28;100014.63;;;0.04
78961;BMP280;68362;45.970;12.646;2024-01-16T00:06:31;100023.03;;;0.06
78961;BMP280;68362;45.970;12.646;2024-01-16T00:07:33;100020.72;;;-0.22
78961;BMP280;68362;45.970;12.646;2024-01-16T00:08:37;100023.28;;;-0.30
78961;BMP280;68362;45.970;12.646;2024-01-16T00:09:39;100026.72;;;-0.56
78961;BMP280;68362;45.970;12.646;2024-01-16T00:10:41;100029.97;;;-0.53
78961;BMP280;68362;45.970;12.646;2024-01-16T00:11:43;100031.63;;;-0.70
78961;BMP280;68362;45.970;12.646;2024-01-16T00:12:46;100037.72;;;-1.06
78961;BMP280;68362;45.970;12.646;2024-01-16T00:13:48;100035.69;;;-1.20
78961;BMP280;68362;45.970;12.646;2024-01-16T00:14:51;100037.22;;;-0.75
78961;BMP280;68362;45.970;12.646;2024-01-16T00:15:53;100040.31;;;-0.80
78961;BMP280;68362;45.970;12.646;2024-01-16T00:16:55;100044.97;;;-0.83
78961;BMP280;68362;45.970;12.646;2024-01-16T00:17:57;100043.00;;;-0.89
78961;BMP280;68362;45.970;12.646;2024-01-16T00:19:00;100046.38;;;-0.89
78961;BMP280;68362;45.970;12.646;2024-01-16T00:20:02;100046.28;;;-0.71
78961;BMP280;68362;45.970;12.646;2024-01-16T00:21:07;100050.16;;;-0.67
78961;BMP280;68362;45.970;12.646;2024-01-16T00:22:09;100053.25;;;-0.63
78961;BMP280;68362;45.970;12.646;2024-01-16T00:23:11;100050.25;;;-0.85
78961;BMP280;68362;45.970;12.646;2024-01-16T00:24:14;100051.41;;;-0.79
78961;BMP280;68362;45.970;12.646;2024-01-16T00:25:17;100049.63;;;-0.79
78961;BMP280;68362;45.970;12.646;2024-01-16T00:26:22;100052.09;;;-1.21
78961;BMP280;68362;45.970;12.646;2024-01-16T00:27:25;100049.59;;;-1.13
78961;BMP280;68362;45.970;12.646;2024-01-16T00:28:27;100054.16;;;-0.81
78961;BMP280;68362;45.970;12.646;2024-01-16T00:29:29;100059.53;;;-0.66
78961;BMP280;68362;45.970;12.646;2024-01-16T00:30:32;100051.34;;;-0.87
78961;BMP280;68362;45.970;12.646;2024-01-16T00:31:35;100058.06;;;-0.94
78961;BMP280;68362;45.970;12.646;2024-01-16T00:32:39;100056.56;;;-0.79
78961;BMP280;68362;45.970;12.646;2024-01-16T00:33:41;100058.91;;;-0.60
78961;BMP280;68362;45.970;12.646;2024-01-16T00:34:43;100062.69;;;-0.46
78961;BMP280;68362;45.970;12.646;2024-01-16T00:35:46;100068.34;;;-0.34
78961;BMP280;68362;45.970;12.646;2024-01-16T00:36:48;100068.03;;;-0.39
78961;BMP280;68362;45.970;12.646;2024-01-16T00:37:50;100076.94;;;-0.60
78961;BMP280;68362;45.970;12.646;2024-01-16T00:38:52;100076.25;;;-0.36
78961;BMP280;68362;45.970;12.646;2024-01-16T00:39:54;100077.41;;;-0.30
78961;BMP280;68362;45.970;12.646;2024-01-16T00:40:56;100076.13;;;-0.26
78961;BMP280;68362;45.970;12.646;2024-01-16T00:41:58;100086.34;;;-0.50
78961;BMP280;68362;45.970;12.646;2024-01-16T00:43:01;100085.72;;;-0.70
78961;BMP280;68362;45.970;12.646;2024-01-16T00:44:04;100074.47;;;-0.69
78961;BMP280;68362;45.970;12.646;2024-01-16T00:45:07;100084.59;;;-0.42
78961;BMP280;68362;45.970;12.646;2024-01-16T00:46:09;100091.53;;;-0.34
78961;BMP280;68362;45.970;12.646;2024-01-16T00:47:11;100087.56;;;-0.63
78961;BMP280;68362;45.970;12.646;2024-01-16T00:48:14;100084.81;;;-0.61
78961;BMP280;68362;45.970;12.646;2024-01-16T00:49:16;100086.19;;;-0.41
78961;BMP280;68362;45.970;12.646;2024-01-16T00:50:22;100089.16;;;-0.62
78961;BMP280;68362;45.970;12.646;2024-01-16T00:51:26;100085.53;;;-0.43
78961;BMP280;68362;45.970;12.646;2024-01-16T00:52:28;100089.81;;;-0.25
78961;BMP280;68362;45.970;12.646;2024-01-16T00:53:31;100090.16;;;-0.20
78961;BMP280;68362;45.970;12.646;2024-01-16T00:54:33;100089.06;;;-0.10
78961;BMP280;68362;45.970;12.646;2024-01-16T00:55:35;100093.59;;;-0.03
78961;BMP280;68362;45.970;12.646;2024-01-16T00:56:37;100097.16;;;-0.39
78961;BMP280;68362;45.970;12.646;2024-01-16T00:57:40;100101.69;;;-0.67
78961;BMP280;68362;45.970;12.646;2024-01-16T00:58:42;100110.94;;;-0.82
78961;BMP280;68362;45.970;12.646;2024-01-16T00:59:44;100107.94;;;-0.69
78961;BMP280;68362;45.970;12.646;2024-01-16T01:00:46;100111.25;;;-0.59
78961;BMP280;68362;45.970;12.646;2024-01-16T01:01:48;100107.63;;;-0.40
78961;BMP280;68362;45.970;12.646;2024-01-16T01:02:51;100112.47;;;-0.37
78961;BMP280;68362;45.970;12.646;2024-01-16T01:03:53;100105.78;;;-0.56
78961;BMP280;68362;45.970;12.646;2024-01-16T01:04:55;100115.44;;;-0.58
78961;BMP280;68362;45.970;12.646;2024-01-16T01:05:59;100116.66;;;-0.36
78961;BMP280;68362;45.970;12.646;2024-01-16T01:07:02;100123.75;;;-0.38
78961;BMP280;68362;45.970;12.646;2024-01-16T01:08:05;100128.16;;;-0.57
78961;BMP280;68362;45.970;12.646;2024-01-16T01:09:07;100132.28;;;-0.64
78961;BMP280;68362;45.970;12.646;2024-01-16T01:10:09;100132.41;;;-0.47
78961;BMP280;68362;45.970;12.646;2024-01-16T01:11:12;100127.56;;;-0.50
78961;BMP280;68362;45.970;12.646;2024-01-16T01:12:14;100133.63;;;-0.60
78961;BMP280;68362;45.970;12.646;2024-01-16T01:13:16;100133.38;;;-0.40
78961;BMP280;68362;45.970;12.646;2024-01-16T01:14:18;100134.03;;;-0.46
78961;BMP280;68362;45.970;12.646;2024-01-16T01:15:21;100140.44;;;-0.50
78961;BMP280;68362;45.970;12.646;2024-01-16T01:16:23;100141.03;;;-0.83
78961;BMP280;68362;45.970;12.646;2024-01-16T01:17:25;100141.44;;;-0.95
78961;BMP280;68362;45.970;12.646;2024-01-16T01:18:28;100144.06;;;-0.61
78961;BMP280;68362;45.970;12.646;2024-01-16T01:19:30;100142.34;;;-0.52
78961;BMP280;68362;45.970;12.646;2024-01-16T01:20:32;100146.63;;;-0.35
78961;BMP280;68362;45.970;12.646;2024-01-16T01:21:35;100146.56;;;-0.43
78961;BMP280;68362;45.970;12.646;2024-01-16T01:22:37;100148.59;;;-0.29
78961;BMP280;68362;45.970;12.646;2024-01-16T01:23:39;100149.78;;;-0.49
78961;BMP280;68362;45.970;12.646;2024-01-16T01:24:41;100153.03;;;-0.47
78961;BMP280;68362;45.970;12.646;2024-01-16T01:25:44;100149.38;;;-0.63
78961;BMP280;68362;45.970;12.646;2024-01-16T01:26:46;100160.00;;;-0.66
78961;BMP280;68362;45.970;12.646;2024-01-16T01:27:49;100164.31;;;-0.66
78961;BMP280;68362;45.970;12.646;2024-01-16T01:28:51;100161.03;;;-0.76
78961;BMP280;68362;45.970;12.646;2024-01-16T01:29:54;100168.31;;;-0.90
78961;BMP280;68362;45.970;12.646;2024-01-16T01:30:57;100167.56;;;-0.64
78961;BMP280;68362;45.970;12.646;2024-01-16T01:31:59;100166.75;;;-0.65
78961;BMP280;68362;45.970;12.646;2024-01-16T01:33:01;100163.88;;;-0.62
78961;BMP280;68362;45.970;12.646;2024-01-16T01:34:04;100163.38;;;-0.65
78961;BMP280;68362;45.970;12.646;2024-01-16T01:35:07;100165.31;;;-0.85
78961;BMP280;68362;45.970;12.646;2024-01-16T01:36:09;100166.94;;;-1.20
78961;BMP280;68362;45.970;12.646;2024-01-16T01:37:11;100172.28;;;-1.13
78961;BMP280;68362;45.970;12.646;2024-01-16T01:38:14;100170.09;;;-1.08
78961;BMP280;68362;45.970;12.646;2024-01-16T01:39:16;100166.81;;;-0.83
78961;BMP280;68362;45.970;12.646;2024-01-16T01:40:18;100169.28;;;-1.09
78961;BMP280;68362;45.970;12.646;2024-01-16T01:41:20;100167.09;;;-1.04
78961;BMP280;68362;45.970;12.646;2024-01-16T01:42:23;100174.81;;;-1.04
78961;BMP280;68362;45.970;12.646;2024-01-16T01:43:25;100179.50;;;-0.99
78961;BMP280;68362;45.970;12.646;2024-01-16T01:44:28;100177.22;;;-0.84
78961;BMP280;68362;45.970;12.646;2024-01-16T01:45:30;100181.66;;;-0.94
78961;BMP280;68362;45.970;12.646;2024-01-16T01:46:32;100182.38;;;-0.84
78961;BMP280;68362;45.970;12.646;2024-01-16T01:47:40;100185.38;;;-0.71
78961;BMP280;68362;45.970;12.646;2024-01-16T01:48:46;100188.50;;;-0.85
78961;BMP280;68362;45.970;12.646;2024-01-16T01:49:50;100195.00;;;-0.73
78961;BMP280;68362;45.970;12.646;2024-01-16T01:50:53;100184.91;;;-0.92
78961;BMP280;68362;45.970;12.646;2024-01-16T01:51:55;100187.69;;;-1.04
78961;BMP280;68362;45.970;12.646;2024-01-16T01:52:57;100188.72;;;-0.96
78961;BMP280;68362;45.970;12.646;2024-01-16T01:54:00;100192.69;;;-0.84
78961;BMP280;68362;45.970;12.646;2024-01-16T01:55:03;100196.81;;;-0.91
78961;BMP280;68362;45.970;12.646;2024-01-16T01:56:11;100193.69;;;-0.77
78961;BMP280;68362;45.970;12.646;2024-01-16T01:57:13;100200.16;;;-0.73
78961;BMP280;68362;45.970;12.646;2024-01-16T01:58:15;100202.34;;;-0.86
78961;BMP280;68362;45.970;12.646;2024-01-16T01:59:19;100205.50;;;-0.92
78961;BMP280;68362;45.970;12.646;2024-01-16T02:00:22;100200.03;;;-0.71
78961;BMP280;68362;45.970;12.646;2024-01-16T02:01:25;100199.72;;;-1.22
78961;BMP280;68362;45.970;12.646;2024-01-16T02:02:29;100208.41;;;-1.05
78961;BMP280;68362;45.970;12.646;2024-01-16T02:03:35;100203.56;;;-1.08
78961;BMP280;68362;45.970;12.646;2024-01-16T02:04:42;100213.22;;;-0.92
78961;BMP280;68362;45.970;12.646;2024-01-16T02:05:45;100215.03;;;-0.67
78961;BMP280;68362;45.970;12.646;2024-01-16T02:06:48;100211.00;;;-0.87
78961;BMP280;68362;45.970;12.646;2024-01-16T02:07:51;100209.34;;;-1.42
78961;BMP280;68362;45.970;12.646;2024-01-16T02:08:53;100213.44;;;-1.04
78961;BMP280;68362;45.970;12.646;2024-01-16T02:09:55;100212.97;;;-1.17
78961;BMP280;68362;45.970;12.646;2024-01-16T02:10:57;100216.06;;;-1.31
78961;BMP280;68362;45.970;12.646;2024-01-16T02:12:00;100209.22;;;-1.05
78961;BMP280;68362;45.970;12.646;2024-01-16T02:13:02;100210.63;;;-1.28
78961;BMP280;68362;45.970;12.646;2024-01-16T02:14:05;100208.13;;;-1.02
78961;BMP280;68362;45.970;12.646;2024-01-16T02:15:07;100218.13;;;-0.81
78961;BMP280;68362;45.970;12.646;2024-01-16T02:16:20;100221.19;;;-1.31
78961;BMP280;68362;45.970;12.646;2024-01-16T02:17:22;100215.03;;;-1.38
78961;BMP280;68362;45.970;12.646;2024-01-16T02:18:24;100216.72;;;-1.11
78961;BMP280;68362;45.970;12.646;2024-01-16T02:19:26;100217.72;;;-1.40
78961;BMP280;68362;45.970;12.646;2024-01-16T02:20:29;100212.84;;;-1.33
78961;BMP280;68362;45.970;12.646;2024-01-16T02:21:53;100216.34;;;-0.98
78961;BMP280;68362;45.970;12.646;2024-01-16T02:23:00;100218.94;;;-0.98
78961;BMP280;68362;45.970;12.646;2024-01-16T02:24:05;100221.00;;;-0.84
78961;BMP280;68362;45.970;12.646;2024-01-16T02:25:09;100223.59;;;-0.84
78961;BMP280;68362;45.970;12.646;2024-01-16T02:26:13;100221.16;;;-1.04
78961;BMP280;68362;45.970;12.646;2024-01-16T02:27:15;100222.53;;;-1.27
78961;BMP280;68362;45.970;12.646;2024-01-16T02:28:17;100224.16;;;-1.08
78961;BMP280;68362;45.970;12.646;2024-01-16T02:29:20;100222.84;;;-1.12
78961;BMP280;68362;45.970;12.646;2024-01-16T02:30:22;100229.19;;;-1.34
78961;BMP280;68362;45.970;12.646;2024-01-16T02:31:24;100228.88;;;-1.04
78961;BMP280;68362;45.970;12.646;2024-01-16T02:32:26;100232.47;;;-1.32
78961;BMP280;68362;45.970;12.646;2024-01-16T02:33:29;100234.63;;;-1.10
78961;BMP280;68362;45.970;12.646;2024-01-16T02:34:31;100229.03;;;-0.87
78961;BMP280;68362;45.970;12.646;2024-01-16T02:35:34;100241.63;;;-0.84
78961;BMP280;68362;45.970;12.646;2024-01-16T02:36:36;100236.41;;;-1.38
78961;BMP280;68362;45.970;12.646;2024-01-16T02:37:38;100237.25;;;-1.02
78961;BMP280;68362;45.970;12.646;2024-01-16T02:38:40;100233.25;;;-1.14
78961;BMP280;68362;45.970;12.646;2024-01-16T02:39:46;100230.69;;;-1.32
78961;BMP280;68362;45.970;12.646;2024-01-16T02:40:48;100232.59;;;-1.34
78961;BMP280;68362;45.970;12.646;2024-01-16T02:41:51;100233.13;;;-1.30
78961;BMP280;68362;45.970;12.646;2024-01-16T02:42:53;100236.06;;;-1.25
78961;BMP280;68362;45.970;12.646;2024-01-16T02:43:55;100234.75;;;-1.29
78961;BMP280;68362;45.970;12.646;2024-01-16T02:44:57;100234.53;;;-1.00
78961;BMP280;68362;45.970;12.646;2024-01-16T02:45:59;100236.28;;;-1.18
78961;BMP280;68362;45.970;12.646;2024-01-16T02:47:01;100241.09;;;-1.23
78961;BMP280;68362;45.970;12.646;2024-01-16T02:48:04;100244.41;;;-1.41
78961;BMP280;68362;45.970;12.646;2024-01-16T02:49:07;100242.34;;;-1.37
78961;BMP280;68362;45.970;12.646;2024-01-16T02:50:09;100244.81;;;-1.18
78961;BMP280;68362;45.970;12.646;2024-01-16T02:51:12;100243.06;;;-0.99
78961;BMP280;68362;45.970;12.646;2024-01-16T02:52:14;100247.38;;;-1.18
78961;BMP280;68362;45.970;12.646;2024-01-16T02:53:16;100245.25;;;-1.22
78961;BMP280;68362;45.970;12.646;2024-01-16T02:54:19;100248.81;;;-1.06
78961;BMP280;68362;45.970;12.646;2024-01-16T02:55:21;100250.78;;;-1.17
78961;BMP280;68362;45.970;12.646;2024-01-16T02:56:24;100253.81;;;-1.04
78961;BMP280;68362;45.970;12.646;2024-01-16T02:57:26;100249.78;;;-1.07
78961;BMP280;68362;45.970;12.646;2024-01-16T02:58:29;100254.03;;;-0.97
78961;BMP280;68362;45.970;12.646;2024-01-16T02:59:32;100251.72;;;-1.18
78961;BMP280;68362;45.970;12.646;2024-01-16T03:00:34;100254.53;;;-1.12
78961;BMP280;68362;45.970;12.646;2024-01-16T03:01:36;100256.72;;;-0.89
78961;BMP280;68362;45.970;12.646;2024-01-16T03:02:39;100260.06;;;-0.71
78961;BMP280;68362;45.970;12.646;2024-01-16T03:03:42;100258.47;;;-0.72
78961;BMP280;68362;45.970;12.646;2024-01-16T03:04:44;100262.34;;;-0.68
78961;BMP280;68362;45.970;12.646;2024-01-16T03:05:46;100258.59;;;-0.56
78961;BMP280;68362;45.970;12.646;2024-01-16T03:06:49;100266.19;;;-0.54
78961;BMP280;68362;45.970;12.646;2024-01-16T03:07:52;100263.31;;;-0.51
78961;BMP280;68362;45.970;12.646;2024-01-16T03:08:54;100270.88;;;-0.67
78961;BMP280;68362;45.970;12.646;2024-01-16T03:09:56;100270.81;;;-0.58
78961;BMP280;68362;45.970;12.646;2024-01-16T03:10:58;100273.03;;;-0.63
78961;BMP280;68362;45.970;12.646;2024-01-16T03:12:01;100274.06;;;-0.56
78961;BMP280;68362;45.970;12.646;2024-01-16T03:13:04;100268.91;;;-0.56
78961;BMP280;68362;45.970;12.646;2024-01-16T03:14:06;100277.50;;;-0.47
78961;BMP280;68362;45.970;12.646;2024-01-16T03:15:09;100279.97;;;-0.45
78961;BMP280;68362;45.970;12.646;2024-01-16T03:16:12;100283.16;;;-0.43
78961;BMP280;68362;45.970;12.646;2024-01-16T03:17:14;100280.94;;;-0.38
78961;BMP280;68362;45.970;12.646;2024-01-16T03:18:16;100276.81;;;-0.31
78961;BMP280;68362;45.970;12.646;2024-01-16T03:19:19;100289.06;;;-0.33
78961;BMP280;68362;45.970;12.646;2024-01-16T03:20:21;100283.91;;;-0.33
78961;BMP280;68362;45.970;12.646;2024-01-16T03:21:25;100284.53;;;-0.31
78961;BMP280;68362;45.970;12.646;2024-01-16T03:22:27;100283.59;;;-0.30
78961;BMP280;68362;45.970;12.646;2024-01-16T03:23:29;100283.31;;;-0.27
78961;BMP280;68362;45.970;12.646;2024-01-16T03:24:31;100283.53;;;-0.38
78961;BMP280;68362;45.970;12.646;2024-01-16T03:25:33;100287.56;;;-0.36
78961;BMP280;68362;45.970;12.646;2024-01-16T03:26:40;100287.56;;;-0.36
78961;BMP280;68362;45.970;12.646;2024-01-16T03:27:45;100295.09;;;-0.42
78961;BMP280;68362;45.970;12.646;2024-01-16T03:28:47;100288.69;;;-0.38
78961;BMP280;68362;45.970;12.646;2024-01-16T03:29:49;100291.75;;;-0.35
78961;BMP280;68362;45.970;12.646;2024-01-16T03:30:51;100285.38;;;-0.30
78961;BMP280;68362;45.970;12.646;2024-01-16T03:31:54;100291.38;;;-0.40
78961;BMP280;68362;45.970;12.646;2024-01-16T03:32:56;100285.69;;;-0.51
78961;BMP280;68362;45.970;12.646;2024-01-16T03:33:59;100283.59;;;-0.30
78961;BMP280;68362;45.970;12.646;2024-01-16T03:35:01;100283.44;;;-0.28
78961;BMP280;68362;45.970;12.646;2024-01-16T03:36:04;100291.03;;;-0.27
78961;BMP280;68362;45.970;12.646;2024-01-16T03:37:06;100291.09;;;-0.19
78961;BMP280;68362;45.970;12.646;2024-01-16T03:38:08;100291.84;;;-0.44
78961;BMP280;68362;45.970;12.646;2024-01-16T03:39:10;100293.41;;;-0.69
78961;BMP280;68362;45.970;12.646;2024-01-16T03:40:14;100282.81;;;-0.84
78961;BMP280;68362;45.970;12.646;2024-01-16T03:41:16;100293.66;;;-0.63
78961;BMP280;68362;45.970;12.646;2024-01-16T03:42:18;100292.50;;;-0.78
78961;BMP280;68362;45.970;12.646;2024-01-16T03:43:20;100283.59;;;-1.02
78961;BMP280;68362;45.970;12.646;2024-01-16T03:44:23;100288.56;;;-1.18
78961;BMP280;68362;45.970;12.646;2024-01-16T03:45:25;100297.97;;;-0.81
78961;BMP280;68362;45.970;12.646;2024-01-16T03:46:27;100295.53;;;-1.00
78961;BMP280;68362;45.970;12.646;2024-01-16T03:47:29;100295.56;;;-1.10
78961;BMP280;68362;45.970;12.646;2024-01-16T03:48:31;100292.06;;;-1.09
78961;BMP280;68362;45.970;12.646;2024-01-16T03:49:34;100303.66;;;-1.23
78961;BMP280;68362;45.970;12.646;2024-01-16T03:50:36;100302.28;;;-0.99
78961;BMP280;68362;45.970;12.646;2024-01-16T03:51:38;100309.84;;;-1.16
78961;BMP280;68362;45.970;12.646;2024-01-16T03:52:40;100305.22;;;-1.22
78961;BMP280;68362;45.970;12.646;2024-01-16T03:53:43;100301.94;;;-1.32
78961;BMP280;68362;45.970;12.646;2024-01-16T03:54:45;100304.22;;;-1.29
78961;BMP280;68362;45.970;12.646;2024-01-16T03:55:47;100306.41;;;-1.07
78961;BMP280;68362;45.970;12.646;2024-01-16T03:56:50;100317.00;;;-1.10
78961;BMP280;68362;45.970;12.646;2024-01-16T03:57:53;100315.56;;;-0.94
78961;BMP280;68362;45.970;12.646;2024-01-16T03:58:55;100315.13;;;-0.72
78961;BMP280;68362;45.970;12.646;2024-01-16T03:59:57;100316.81;;;-0.63
78961;BMP280;68362;45.970;12.646;2024-01-16T04:01:00;100312.16;;;-0.77
78961;BMP280;68362;45.970;12.646;2024-01-16T04:02:02;100314.53;;;-0.66
78961;BMP280;68362;45.970;12.646;2024-01-16T04:03:05;100312.03;;;-0.58
78961;BMP280;68362;45.970;12.646;2024-01-16T04:04:10;100321.66;;;-0.42
78961;BMP280;68362;45.970;12.646;2024-01-16T04:05:12;100314.03;;;-0.34
78961;BMP280;68362;45.970;12.646;2024-01-16T04:06:18;100324.06;;;-0.48
78961;BMP280;68362;45.970;12.646;2024-01-16T04:07:22;100315.03;;;-0.98
78961;BMP280;68362;45.970;12.646;2024-01-16T04:08:25;100315.25;;;-0.91
78961;BMP280;68362;45.970;12.646;2024-01-16T04:09:27;100321.72;;;-0.87
78961;BMP280;68362;45.970;12.646;2024-01-16T04:10:30;100319.69;;;-0.66
78961;BMP280;68362;45.970;12.646;2024-01-16T04:11:32;100321.91;;;-0.71
78961;BMP280;68362;45.970;12.646;2024-01-16T04:12:34;100322.22;;;-1.02
78961;BMP280;68362;45.970;12.646;2024-01-16T04:13:36;100323.13;;;-0.93
78961;BMP280;68362;45.970;12.646;2024-01-16T04:14:39;100327.50;;;-1.03
78961;BMP280;68362;45.970;12.646;2024-01-16T04:15:42;100331.84;;;-1.04
78961;BMP280;68362;45.970;12.646;2024-01-16T04:16:44;100339.63;;;-0.86
78961;BMP280;68362;45.970;12.646;2024-01-16T04:17:46;100332.19;;;-0.71
78961;BMP280;68362;45.970;12.646;2024-01-16T04:18:48;100334.56;;;-0.60
78961;BMP280;68362;45.970;12.646;2024-01-16T04:19:51;100333.31;;;-0.56
78961;BMP280;68362;45.970;12.646;2024-01-16T04:20:53;100338.97;;;-0.52
78961;BMP280;68362;45.970;12.646;2024-01-16T04:21:55;100336.41;;;-0.52
78961;BMP280;68362;45.970;12.646;2024-01-16T04:22:58;100342.59;;;-0.63
78961;BMP280;68362;45.970;12.646;2024-01-16T04:24:00;100344.09;;;-0.70
78961;BMP280;68362;45.970;12.646;2024-01-16T04:25:02;100351.75;;;-0.78
78961;BMP280;68362;45.970;12.646;2024-01-16T04:26:07;100348.16;;;-0.67
78961;BMP280;68362;45.970;12.646;2024-01-16T04:27:10;100352.06;;;-0.81
78961;BMP280;68362;45.970;12.646;2024-01-16T04:28:12;100345.97;;;-0.80
78961;BMP280;68362;45.970;12.646;2024-01-16T04:29:14;100351.94;;;-1.07
78961;BMP280;68362;45.970;12.646;2024-01-16T04:30:17;100348.97;;;-1.22
78961;BMP280;68362;45.970;12.646;2024-01-16T04:31:19;100353.59;;;-1.16
78961;BMP280;68362;45.970;12.646;2024-01-16T04:32:23;100347.84;;;-1.28
78961;BMP280;68362;45.970;12.646;2024-01-16T04:33:26;100350.06;;;-1.15
78961;BMP280;68362;45.970;12.646;2024-01-16T04:34:28;100353.13;;;-1.29
78961;BMP280;68362;45.970;12.646;2024-01-16T04:35:30;100354.13;;;-1.50
78961;BMP280;68362;45.970;12.646;2024-01-16T04:36:32;100355.28;;;-1.34
78961;BMP280;68362;45.970;12.646;2024-01-16T04:37:34;100353.50;;;-1.24
78961;BMP280;68362;45.970;12.646;2024-01-16T04:38:37;100355.56;;;-1.00
78961;BMP280;68362;45.970;12.646;2024-01-16T04:39:39;100365.84;;;-1.00
78961;BMP280;68362;45.970;12.646;2024-01-16T04:40:41;100363.66;;;-0.95
78961;BMP280;68362;45.970;12.646;2024-01-16T04:41:43;100361.09;;;-1.05
78961;BMP280;68362;45.970;12.646;2024-01-16T04:42:46;100364.41;;;-1.22
78961;BMP280;68362;45.970;12.646;2024-01-16T04:43:48;100371.00;;;-1.37
78961;BMP280;68362;45.970;12.646;2024-01-16T04:44:51;100365.75;;;-1.45
78961;BMP280;68362;45.970;12.646;2024-01-16T04:45:53;100367.69;;;-1.20
78961;BMP280;68362;45.970;12.646;2024-01-16T04:46:56;100361.22;;;-1.24
78961;BMP280;68362;45.970;12.646;2024-01-16T04:47:58;100373.03;;;-1.31
78961;BMP280;68362;45.970;12.646;2024-01-16T04:49:01;100370.47;;;-1.41
78961;BMP280;68362;45.970;12.646;2024-01-16T04:50:04;100369.13;;;-1.35
78961;BMP280;68362;45.970;12.646;2024-01-16T04:51:06;100371.00;;;-1.37
78961;BMP280;68362;45.970;12.646;2024-01-16T04:52:09;100374.28;;;-1.55
78961;BMP280;68362;45.970;12.646;2024-01-16T04:53:11;100376.88;;;-1.55
78961;BMP280;68362;45.970;12.646;2024-01-16T04:54:14;100377.81;;;-1.56
78961;BMP280;68362;45.970;12.646;2024-01-16T04:55:16;100374.28;;;-1.55
78961;BMP280;68362;45.970;12.646;2024-01-16T04:56:18;100376.72;;;-1.43
78961;BMP280;68362;45.970;12.646;2024-01-16T04:57:21;100374.03;;;-1.42
78961;BMP280;68362;45.970;12.646;2024-01-16T04:58:23;100379.00;;;-1.40
78961;BMP280;68362;45.970;12.646;2024-01-16T04:59:25;100374.31;;;-1.17
78961;BMP280;68362;45.970;12.646;2024-01-16T05:00:27;100380.47;;;-1.28
78961;BMP280;68362;45.970;12.646;2024-01-16T05:01:29;100371.16;;;-1.49
78961;BMP280;68362;45.970;12.646;2024-01-16T05:02:33;100370.78;;;-1.63
78961;BMP280;68362;45.970;12.646;2024-01-16T05:03:36;100382.94;;;-1.36
78961;BMP280;68362;45.970;12.646;2024-01-16T05:04:38;100384.28;;;-1.32
78961;BMP280;68362;45.970;12.646;2024-01-16T05:05:41;100372.38;;;-1.43
78961;BMP280;68362;45.970;12.646;2024-01-16T05:06:43;100388.75;;;-1.34
78961;BMP280;68362;45.970;12.646;2024-01-16T05:07:46;100395.00;;;-1.09
78961;BMP280;68362;45.970;12.646;2024-01-16T05:08:48;100386.03;;;-0.95
78961;BMP280;68362;45.970;12.646;2024-01-16T05:09:50;100382.81;;;-1.07
78961;BMP280;68362;45.970;12.646;2024-01-16T05:10:52;100391.00;;;-1.21
78961;BMP280;68362;45.970;12.646;2024-01-16T05:11:55;100384.31;;;-1.42
78961;BMP280;68362;45.970;12.646;2024-01-16T05:12:57;100388.78;;;-1.16
78961;BMP280;68362;45.970;12.646;2024-01-16T05:13:59;100396.47;;;-1.24
78961;BMP280;68362;45.970;12.646;2024-01-16T05:15:01;100392.56;;;-1.11
78961;BMP280;68362;45.970;12.646;2024-01-16T05:16:05;100403.66;;;-1.00
78961;BMP280;68362;45.970;12.646;2024-01-16T05:17:07;100397.38;;;-0.88
78961;BMP280;68362;45.970;12.646;2024-01-16T05:18:10;100397.00;;;-1.31
78961;BMP280;68362;45.970;12.646;2024-01-16T05:19:12;100404.31;;;-1.45
78961;BMP280;68362;45.970;12.646;2024-01-16T05:20:14;100403.53;;;-1.46
78961;BMP280;68362;45.970;12.646;2024-01-16T05:21:17;100400.53;;;-1.32
78961;BMP280;68362;45.970;12.646;2024-01-16T05:22:19;100398.97;;;-1.62
78961;BMP280;68362;45.970;12.646;2024-01-16T05:23:22;100398.97;;;-1.62
78961;BMP280;68362;45.970;12.646;2024-01-16T05:24:24;100405.19;;;-1.64
78961;BMP280;68362;45.970;12.646;2024-01-16T05:25:26;100405.47;;;-1.67
78961;BMP280;68362;45.970;12.646;2024-01-16T05:26:28;100400.56;;;-1.61
78961;BMP280;68362;45.970;12.646;2024-01-16T05:27:30;100412.75;;;-1.73
78961;BMP280;68362;45.970;12.646;2024-01-16T05:28:33;100412.91;;;-1.74
78961;BMP280;68362;45.970;12.646;2024-01-16T05:29:35;100421.69;;;-1.57
78961;BMP280;68362;45.970;12.646;2024-01-16T05:30:43;100428.16;;;-1.43
78961;BMP280;68362;45.970;12.646;2024-01-16T05:31:45;100426.97;;;-1.59
78961;BMP280;68362;45.970;12.646;2024-01-16T05:32:48;100436.09;;;-1.17
78961;BMP280;68362;45.970;12.646;2024-01-16T05:33:50;100433.91;;;-1.22
78961;BMP280;68362;45.970;12.646;2024-01-16T05:34:52;100435.72;;;-1.22
78961;BMP280;68362;45.970;12.646;2024-01-16T05:35:57;100443.28;;;-1.21
78961;BMP280;68362;45.970;12.646;2024-01-16T05:36:59;100450.16;;;-1.12
78961;BMP280;68362;45.970;12.646;2024-01-16T05:38:01;100450.53;;;-0.97
78961;BMP280;68362;45.970;12.646;2024-01-16T05:39:04;100450.28;;;-1.04
78961;BMP280;68362;45.970;12.646;2024-01-16T05:40:07;100454.38;;;-1.20
78961;BMP280;68362;45.970;12.646;2024-01-16T05:41:10;100457.84;;;-0.92
78961;BMP280;68362;45.970;12.646;2024-01-16T05:42:12;100456.22;;;-0.93
78961;BMP280;68362;45.970;12.646;2024-01-16T05:43:14;100452.41;;;-0.89
78961;BMP280;68362;45.970;12.646;2024-01-16T05:44:16;100457.56;;;-0.89
78961;BMP280;68362;45.970;12.646;2024-01-16T05:45:19;100460.31;;;-0.73
78961;BMP280;68362;45.970;12.646;2024-01-16T05:46:21;100458.41;;;-0.71
78961;BMP280;68362;45.970;12.646;2024-01-16T05:47:23;100467.88;;;-0.62
78961;BMP280;68362;45.970;12.646;2024-01-16T05:48:29;100464.44;;;-0.52
78961;BMP280;68362;45.970;12.646;2024-01-16T05:49:32;100464.44;;;-0.52
78961;BMP280;68362;45.970;12.646;2024-01-16T05:50:36;100465.00;;;-0.59